createdAt,value
2019-02-10T00:00:31.479Z,5
2019-02-10T00:05:26.835Z,4.8
2019-02-10T00:10:22.006Z,4.8
2019-02-10T00:15:17.496Z,4.7
2019-02-10T00:20:12.834Z,4.5
2019-02-10T00:25:08.273Z,4.4
2019-02-10T00:30:03.398Z,4.4
2019-02-10T00:34:58.297Z,4.2
2019-02-10T00:39:53.537Z,4.1
2019-02-10T00:44:49.227Z,4.1
2019-02-10T00:49:44.657Z,4.2
2019-02-10T00:54:40.006Z,4.2
2019-02-10T00:59:35.259Z,4.2
2019-02-10T01:04:30.604Z,4.2
2019-02-10T01:09:25.561Z,4.1
2019-02-10T01:14:21.144Z,4
2019-02-10T01:19:16.595Z,4
2019-02-10T01:24:12.062Z,4
2019-02-10T01:29:07.528Z,3.4
2019-02-10T01:34:03.055Z,4
2019-02-10T01:38:58.571Z,3.8
2019-02-10T01:43:54.083Z,3.9
2019-02-10T01:48:49.262Z,3.9
2019-02-10T01:53:44.786Z,4
2019-02-10T01:58:40.534Z,3.8
2019-02-10T02:03:36.198Z,3.9
2019-02-10T02:08:31.803Z,4
2019-02-10T02:13:27.285Z,3.9
2019-02-10T02:18:22.717Z,4
2019-02-10T02:23:18.343Z,3.2
2019-02-10T02:28:13.628Z,3.8
2019-02-10T02:33:09.197Z,3.8
2019-02-10T02:38:04.289Z,3.6
2019-02-10T02:42:59.847Z,3.6
2019-02-10T02:47:55.251Z,3.1
2019-02-10T02:52:50.895Z,3.6
2019-02-10T02:57:46.237Z,3.6
2019-02-10T03:02:41.768Z,3.6
2019-02-10T03:07:36.479Z,3.6
2019-02-10T03:12:31.707Z,3.6
2019-02-10T03:17:27.043Z,3.5
2019-02-10T03:22:22.560Z,3.5
2019-02-10T03:27:17.843Z,3.4
2019-02-10T03:32:13.269Z,3.4
2019-02-10T03:37:08.853Z,3.4
2019-02-10T03:42:04.288Z,3.3
2019-02-10T03:46:59.639Z,3.3
2019-02-10T03:51:55.111Z,3.3
2019-02-10T03:56:50.707Z,3.3
2019-02-10T04:01:46.364Z,3.3
2019-02-10T04:06:42.048Z,3.3
2019-02-10T04:11:37.641Z,3.2
2019-02-10T04:16:33.106Z,3.2
2019-02-10T04:21:28.662Z,3.4
2019-02-10T04:26:24.143Z,3.4
2019-02-10T04:31:19.811Z,3.3
2019-02-10T04:36:14.560Z,3.4
2019-02-10T04:41:10.099Z,3.5
2019-02-10T04:46:05.441Z,3.5
2019-02-10T04:51:01.124Z,3.3
2019-02-10T04:55:56.523Z,3.3
2019-02-10T05:00:52.034Z,3.2
2019-02-10T05:05:47.324Z,3
2019-02-10T05:10:42.763Z,2.9
2019-02-10T05:15:38.295Z,2.7
2019-02-10T05:20:33.795Z,2.6
2019-02-10T05:25:28.936Z,2.6
2019-02-10T05:30:24.264Z,2.7
2019-02-10T05:35:19.918Z,2.7
2019-02-10T05:40:15.474Z,2.6
2019-02-10T05:45:11.214Z,2.6
2019-02-10T05:50:06.541Z,2.7
2019-02-10T05:55:01.877Z,2.6
2019-02-10T05:59:57.397Z,2.6
2019-02-10T06:04:53.143Z,2.7
2019-02-10T06:09:48.729Z,2.7
2019-02-10T06:14:44.158Z,2.6
2019-02-10T06:19:39.577Z,2.6
2019-02-10T06:24:34.911Z,2.7
2019-02-10T06:29:30.555Z,2.9
2019-02-10T06:34:25.974Z,2.9
2019-02-10T06:39:21.701Z,3
2019-02-10T06:44:17.343Z,2
2019-02-10T06:49:12.916Z,3.1
2019-02-10T06:54:08.381Z,3.1
2019-02-10T06:59:03.942Z,3.2
2019-02-10T07:08:55.051Z,3.2
2019-02-10T07:13:50.258Z,3.2
2019-02-10T07:18:45.779Z,3.2
2019-02-10T07:23:40.855Z,3.2
2019-02-10T07:28:36.383Z,3.5
2019-02-10T07:33:31.812Z,3.6
2019-02-10T07:38:27.419Z,3.7
2019-02-10T07:43:22.737Z,3.7
2019-02-10T07:48:18.337Z,3.8
2019-02-10T07:53:13.750Z,3.9
2019-02-10T07:58:09.708Z,4
2019-02-10T08:03:05.306Z,3.6
2019-02-10T08:08:00.847Z,4.2
2019-02-10T08:12:56.451Z,4.2
2019-02-10T08:17:53.546Z,4.3
2019-02-10T08:22:47.621Z,4.4
2019-02-10T08:27:43.578Z,4.5
2019-02-10T08:32:39.134Z,4.6
2019-02-10T08:37:34.920Z,4.7
2019-02-10T08:42:30.617Z,4.8
2019-02-10T08:47:33.365Z,4.9
2019-02-10T08:52:22.101Z,5
2019-02-10T08:57:17.485Z,5.2
2019-02-10T09:02:13.030Z,5.3
2019-02-10T09:07:08.674Z,5.4
2019-02-10T09:12:04.191Z,5.5
2019-02-10T09:17:00.053Z,5.6
2019-02-10T09:21:55.815Z,5.7
2019-02-10T09:26:51.690Z,5.9
2019-02-10T09:31:47.182Z,6
2019-02-10T09:36:42.812Z,6.2
2019-02-10T09:41:37.948Z,6.3
2019-02-10T09:46:33.723Z,6.4
2019-02-10T09:51:28.998Z,6.6
2019-02-10T09:56:24.835Z,4.2
2019-02-10T10:01:19.359Z,6.9
2019-02-10T10:06:15.010Z,7
2019-02-10T10:11:10.781Z,7.3
2019-02-10T10:16:06.805Z,7.7
2019-02-10T10:21:02.546Z,8.1
2019-02-10T10:25:58.515Z,8.4
2019-02-10T10:30:54.351Z,8.2
2019-02-10T10:35:50.223Z,8.5
2019-02-10T10:40:46.130Z,9.2
2019-02-10T10:45:42.261Z,9.4
2019-02-10T10:50:38.007Z,9.1
2019-02-10T10:55:33.949Z,9.8
2019-02-10T11:00:29.827Z,10
2019-02-10T11:05:25.660Z,10.1
2019-02-10T11:10:20.897Z,10.2
2019-02-10T11:15:16.817Z,10.2
2019-02-10T11:20:12.763Z,10.4
2019-02-10T11:25:08.677Z,10.4
2019-02-10T11:30:04.438Z,10.6
2019-02-10T11:35:00.221Z,10.7
2019-02-10T11:39:55.832Z,10.8
2019-02-10T11:44:51.645Z,11
2019-02-10T11:49:46.921Z,11.2
2019-02-10T11:54:42.833Z,11.2
2019-02-10T11:59:38.686Z,11.6
2019-02-10T12:04:34.741Z,11.8
2019-02-10T12:09:30.476Z,11.9
2019-02-10T12:14:26.525Z,12.1
2019-02-10T12:19:21.955Z,12.3
2019-02-10T12:24:18.001Z,12.4
2019-02-10T12:29:13.909Z,12.7
2019-02-10T12:34:09.944Z,12.9
2019-02-10T12:39:05.445Z,13
2019-02-10T12:44:01.369Z,13.1
2019-02-10T12:48:57.108Z,13.2
2019-02-10T12:53:53.049Z,13.1
2019-02-10T12:58:48.729Z,13
2019-02-10T13:03:44.674Z,12.5
2019-02-10T13:08:40.477Z,13
2019-02-10T13:13:36.516Z,13
2019-02-10T13:18:32.265Z,12.9
2019-02-10T13:23:28.264Z,13.1
2019-02-10T13:28:23.854Z,13.1
2019-02-10T13:33:19.609Z,13.1
2019-02-10T13:38:14.722Z,13.1
2019-02-10T13:43:10.502Z,13.1
2019-02-10T13:48:06.140Z,13.1
2019-02-10T13:53:02.073Z,13.1
2019-02-10T13:57:57.818Z,13
2019-02-10T14:02:53.550Z,13
2019-02-10T14:07:50.773Z,12.9
2019-02-10T14:12:44.905Z,12.8
2019-02-10T14:17:40.530Z,12.8
2019-02-10T14:22:36.441Z,12.7
2019-02-10T14:27:32.285Z,12.7
2019-02-10T14:32:28.139Z,12.6
2019-02-10T14:37:23.881Z,12.6
2019-02-10T14:42:19.653Z,12.6
2019-02-10T14:47:15.466Z,12.6
2019-02-10T14:52:11.305Z,12.5
2019-02-10T14:57:06.852Z,12.4
2019-02-10T15:02:02.704Z,12.4
2019-02-10T15:06:58.248Z,12.4
2019-02-10T15:11:54.169Z,12.3
2019-02-10T15:16:49.942Z,12.2
2019-02-10T15:21:45.728Z,12.2
2019-02-10T15:26:41.529Z,12.1
2019-02-10T15:31:37.321Z,12
2019-02-10T15:36:33.321Z,12
2019-02-10T15:41:29.214Z,11.9
2019-02-10T15:46:24.809Z,11.7
2019-02-10T15:51:27.428Z,11.8
2019-02-10T15:56:15.733Z,11.8
2019-02-10T16:01:11.173Z,11.7
2019-02-10T16:06:06.917Z,11.7
2019-02-10T16:11:02.792Z,11.6
2019-02-10T16:15:58.651Z,11.6
2019-02-10T16:20:54.070Z,11.5
2019-02-10T16:25:49.918Z,11.5
2019-02-10T16:30:45.809Z,11.5
2019-02-10T16:35:41.855Z,11.4
2019-02-10T16:40:37.676Z,11.3
2019-02-10T16:45:33.578Z,11.4
2019-02-10T16:50:29.412Z,11.3
2019-02-10T16:55:25.100Z,11.2
2019-02-10T17:00:20.522Z,11.2
2019-02-10T17:05:16.353Z,11.1
2019-02-10T17:10:11.990Z,11.1
2019-02-10T17:15:07.841Z,11
2019-02-10T17:20:03.493Z,11
2019-02-10T17:24:58.669Z,10.1
2019-02-10T17:29:54.446Z,10.5
2019-02-10T17:34:50.202Z,10.9
2019-02-10T17:39:45.930Z,10.8
2019-02-10T17:44:41.609Z,10.7
2019-02-10T17:49:37.231Z,10.6
2019-02-10T17:54:33.133Z,10.5
2019-02-10T17:59:28.698Z,5.5
2019-02-10T18:04:24.295Z,10.5
2019-02-10T18:09:20.313Z,10.4
2019-02-10T18:14:15.969Z,10.3
2019-02-10T18:19:11.803Z,10.3
2019-02-10T18:24:07.588Z,10.3
2019-02-10T18:29:03.812Z,10.1
2019-02-10T18:34:00.366Z,10
2019-02-10T18:38:56.219Z,10
2019-02-10T18:43:51.811Z,9.8
2019-02-10T18:48:47.702Z,9.2
2019-02-10T18:53:43.437Z,9.7
2019-02-10T18:58:39.301Z,9.7
2019-02-10T19:03:35.267Z,9.6
2019-02-10T19:08:31.654Z,9.5
2019-02-10T19:13:27.403Z,9.4
2019-02-10T19:18:23.161Z,9.4
2019-02-10T19:23:18.865Z,9.4
2019-02-10T19:28:14.756Z,9.3
2019-02-10T19:33:10.567Z,9.3
2019-02-10T19:38:06.411Z,9.2
2019-02-10T19:43:01.746Z,9.2
2019-02-10T19:47:57.503Z,9.1
2019-02-10T19:52:52.786Z,9.1
2019-02-10T19:57:48.472Z,9.1
2019-02-10T20:02:44.201Z,8.6
2019-02-10T20:07:40.131Z,9.1
2019-02-10T20:12:35.877Z,9
2019-02-10T20:17:31.531Z,9.2
2019-02-10T20:22:26.883Z,9.2
2019-02-10T20:27:22.474Z,8.6
2019-02-10T20:32:18.462Z,8.7
2019-02-10T20:37:14.214Z,8.7
2019-02-10T20:42:12.285Z,8.6
2019-02-10T20:47:05.935Z,8.6
2019-02-10T20:52:01.548Z,8.6
2019-02-10T20:56:57.488Z,8.5
2019-02-10T21:01:53.198Z,8.4
2019-02-10T21:06:48.866Z,8.4
2019-02-10T21:11:44.638Z,8.4
2019-02-10T21:16:40.436Z,8.3
2019-02-10T21:21:36.127Z,8.3
2019-02-10T21:26:31.844Z,8.2
2019-02-10T21:31:27.280Z,8.2
2019-02-10T21:36:22.959Z,8.5
2019-02-10T21:41:18.574Z,8.5
2019-02-10T21:46:14.432Z,8.6
2019-02-10T21:51:10.385Z,8
2019-02-10T21:56:06.054Z,8.5
2019-02-10T22:01:01.654Z,7.9
2019-02-10T22:05:57.525Z,7.3
2019-02-10T22:10:52.879Z,8.3
2019-02-10T22:15:48.722Z,7.8
2019-02-10T22:20:43.958Z,8.3
2019-02-10T22:25:40.426Z,8.3
2019-02-10T22:30:35.643Z,7.7
2019-02-10T22:35:31.448Z,7.6
2019-02-10T22:40:27.292Z,7.6
2019-02-10T22:45:23.081Z,7.5
2019-02-10T22:50:18.436Z,7.5
2019-02-10T22:55:14.159Z,7.5
2019-02-10T23:00:09.916Z,6.9
2019-02-10T23:05:05.696Z,7.4
2019-02-10T23:10:01.562Z,7.4
2019-02-10T23:14:57.323Z,7.4
2019-02-10T23:19:52.794Z,7.3
2019-02-10T23:24:48.878Z,7.3
2019-02-10T23:29:44.575Z,7.3
2019-02-10T23:34:40.557Z,7.3
2019-02-10T23:39:36.353Z,7.2
2019-02-10T23:44:32.215Z,7.2
2019-02-10T23:54:23.963Z,7.3
2019-02-10T23:59:19.660Z,7.7
